| time (UTC) | temp F | wind direction | speed MPH | gust MPH | rain 1hr in | rain 24hr in | rain mn in | humidity % | barometer mb |
| 20260506110538 | 74 | 96 | 2.0 | 9.0 | 0.00 | 0.00 | 0.01 | 49 | 1014.5 |
| 20260506110030 | 74 | 117 | 0.0 | 9.0 | 0.00 | 0.00 | 0.01 | 49 | 1014.5 |
| 20260506105528 | 74 | 154 | 2.0 | 9.0 | 0.00 | 0.00 | 0.01 | 48 | 1014.5 |
| 20260506105029 | 75 | 155 | 1.0 | 6.0 | 0.00 | 0.00 | 0.01 | 47 | 1014.5 |
| 20260506104528 | 74 | 179 | 2.0 | 7.0 | 0.00 | 0.00 | 0.01 | 48 | 1014.7 |
| 20260506104026 | 74 | 65 | 2.0 | 7.0 | 0.00 | 0.00 | 0.01 | 49 | 1014.7 |
| 20260506103527 | 74 | 78 | 2.0 | 6.0 | 0.00 | 0.00 | 0.01 | 48 | 1014.5 |
| 20260506103025 | 74 | 223 | 1.0 | 6.0 | 0.00 | 0.00 | 0.01 | 48 | 1014.5 |
| 20260506102523 | 74 | 168 | 0.0 | 6.0 | 0.00 | 0.00 | 0.01 | 49 | 1014.5 |
| 20260506102017 | 73 | 176 | 0.0 | 10.0 | 0.00 | 0.00 | 0.01 | 52 | 1014.7 |
| 20260506101519 | 74 | 151 | 2.0 | 10.0 | 0.00 | 0.00 | 0.01 | 50 | 1014.7 |
| 20260506101016 | 73 | 155 | 0.0 | 9.0 | 0.00 | 0.00 | 0.01 | 52 | 1014.5 |
| 20260506100514 | 73 | 137 | 0.0 | 5.0 | 0.00 | 0.00 | 0.01 | 51 | 1014.7 |
| 20260506100018 | 73 | 271 | 0.0 | 6.0 | 0.00 | 0.00 | 0.01 | 51 | 1014.7 |
| 20260506095514 | 73 | 121 | 2.0 | 6.0 | 0.00 | 0.00 | 0.01 | 49 | 1014.8 |
| 20260506095016 | 73 | 241 | 1.0 | 9.0 | 0.00 | 0.00 | 0.01 | 50 | 1014.8 |
| 20260506094516 | 74 | 164 | 2.0 | 9.0 | 0.00 | 0.00 | 0.01 | 49 | 1014.9 |
| 20260506094015 | 73 | 219 | 1.0 | 4.0 | 0.00 | 0.00 | 0.01 | 52 | 1014.8 |
| 20260506093516 | 73 | 166 | 0.0 | 7.0 | 0.00 | 0.00 | 0.01 | 49 | 1014.9 |
| 20260506093436 | 73 | 161 | 0.0 | 10.0 | 0.00 | 0.00 | 0.01 | 52 | 1014.9 |
| 20260506092932 | 74 | 190 | 3.0 | 10.0 | 0.00 | 0.00 | 0.01 | 52 | 1014.8 |
| 20260506092014 | 74 | 121 | 0.0 | 7.0 | 0.00 | 0.00 | 0.01 | 52 | 1014.8 |
| 20260506091514 | 73 | 161 | 4.0 | 7.0 | 0.00 | 0.00 | 0.01 | 52 | 1014.8 |
| 20260506091429 | 0 | 0.0 | 0.0 | 0.00 | 0.00 | 0.01 | 1014.8 | ||
| 20260506061548 | 67 | 258 | 0.0 | 0.0 | 0.00 | 0.12 | 0.01 | 69 | 1014.7 |
| 20260506061049 | 66 | 258 | 0.0 | 0.0 | 0.00 | 0.12 | 0.01 | 74 | 1014.7 |
| 20260506060549 | 64 | 258 | 0.0 | 0.0 | 0.00 | 0.12 | 0.01 | 74 | 1014.8 |
| 20260506051225 | 54 | 264 | 0.0 | 0.0 | 0.00 | 0.12 | 0.01 | 80 | 1014.8 |
| 20260506044531 | 49 | 275 | 0.0 | 0.0 | 0.01 | 0.12 | 0.01 | 80 | 1014.5 |
| 20260506044032 | 48 | 275 | 0.0 | 1.0 | 0.01 | 0.12 | 0.01 | 80 | 1014.5 |
| 20260506043531 | 47 | 250 | 0.0 | 1.0 | 0.01 | 0.12 | 0.01 | 80 | 1014.5 |
| 20260506043032 | 47 | 244 | 0.0 | 0.0 | 0.01 | 0.12 | 0.01 | 80 | 1014.5 |
| 20260506042530 | 46 | 244 | 0.0 | 1.0 | 0.01 | 0.12 | 0.01 | 80 | 1014.8 |
| 20260506042445 | 46 | 268 | 0.0 | 2.0 | 0.01 | 0.12 | 0.01 | 80 | 1014.7 |
| 20260506041527 | 45 | 231 | 0.0 | 4.0 | 0.01 | 0.12 | 0.01 | 80 | 1014.4 |
| 20260506041024 | 45 | 274 | 1.0 | 4.0 | 0.01 | 0.12 | 0.01 | 80 | 1014.5 |
| 20260506040522 | 44 | 247 | 0.0 | 0.0 | 0.01 | 0.12 | 0.01 | 80 | 1014.4 |
| 20260506040022 | 43 | 271 | 0.0 | 0.0 | 0.01 | 0.12 | 0.01 | 81 | 1014.5 |
| 20260506035513 | 42 | 271 | 0.0 | 0.0 | 0.01 | 0.11 | 0.01 | 81 | 1014.7 |
| 20260506035013 | 42 | 271 | 0.0 | 0.0 | 0.01 | 0.11 | 0.01 | 81 | 1014.5 |
| 20260506034512 | 42 | 235 | 0.0 | 0.0 | 0.00 | 0.11 | 0.00 | 81 | 1014.5 |
| 20260506034433 | 41 | 244 | 0.0 | 0.0 | 0.00 | 0.11 | 0.00 | 81 | 1014.4 |
| 20260506033511 | 41 | 244 | 0.0 | 0.0 | 0.00 | 0.11 | 0.00 | 81 | 1014.4 |
| 20260506033009 | 41 | 244 | 0.0 | 0.0 | 0.00 | 0.11 | 0.00 | 81 | 1014.4 |
| 20260506032509 | 41 | 244 | 0.0 | 0.0 | 0.00 | 0.11 | 0.00 | 81 | 1014.4 |
| 20260506032425 | 41 | 244 | 0.0 | 0.0 | 0.00 | 0.11 | 0.00 | 81 | 1014.3 |
| 20260506031507 | 41 | 244 | 0.0 | 0.0 | 0.00 | 0.11 | 0.00 | 82 | 1014.3 |
| 20260506031007 | 41 | 244 | 0.0 | 0.0 | 0.00 | 0.11 | 0.00 | 82 | 1014.4 |
| 20260506030508 | 41 | 244 | 0.0 | 0.0 | 0.00 | 0.11 | 0.00 | 82 | 1014.3 |
| 20260506030006 | 41 | 244 | 0.0 | 0.0 | 0.00 | 0.11 | 0.00 | 82 | 1014.2 |
| 20260506025505 | 41 | 244 | 0.0 | 0.0 | 0.00 | 0.11 | 0.00 | 81 | 1014.3 |
| 20260506025422 | 41 | 244 | 0.0 | 0.0 | 0.00 | 0.11 | 0.00 | 81 | 1014.2 |
| 20260506024504 | 41 | 244 | 0.0 | 0.0 | 0.00 | 0.11 | 0.00 | 82 | 1014.3 |
| 20260506024005 | 42 | 244 | 0.0 | 0.0 | 0.00 | 0.11 | 0.00 | 82 | 1014.2 |
| 20260506023503 | 42 | 244 | 0.0 | 0.0 | 0.00 | 0.11 | 0.00 | 81 | 1014.2 |
| 20260506023004 | 42 | 231 | 0.0 | 0.0 | 0.00 | 0.11 | 0.00 | 81 | 1014.1 |
| 20260506022504 | 42 | 244 | 0.0 | 0.0 | 0.00 | 0.11 | 0.00 | 81 | 1014.1 |
| 20260506022004 | 42 | 259 | 0.0 | 0.0 | 0.00 | 0.11 | 0.00 | 82 | 1014.2 |
| 20260506021503 | 42 | 261 | 0.0 | 0.0 | 0.00 | 0.11 | 0.00 | 82 | 1014.1 |
| 20260506021002 | 42 | 261 | 0.0 | 0.0 | 0.00 | 0.11 | 0.00 | 82 | 1014.1 |
| 20260506020502 | 42 | 259 | 0.0 | 0.0 | 0.00 | 0.11 | 0.00 | 82 | 1014.1 |
| 20260506020004 | 43 | 251 | 0.0 | 0.0 | 0.00 | 0.11 | 0.00 | 82 | 1014.1 |
| 20260506015504 | 43 | 251 | 0.0 | 0.0 | 0.00 | 0.11 | 0.00 | 82 | 1014.1 |
| 20260506015005 | 43 | 237 | 0.0 | 0.0 | 0.00 | 0.11 | 0.00 | 81 | 1014.1 |
| 20260506014501 | 43 | 278 | 0.0 | 0.0 | 0.00 | 0.11 | 0.00 | 81 | 1014.1 |
| 20260506014003 | 43 | 241 | 0.0 | 0.0 | 0.00 | 0.11 | 0.00 | 82 | 1014.1 |
| 20260506013501 | 44 | 233 | 0.0 | 0.0 | 0.00 | 0.11 | 0.00 | 81 | 1014.0 |
| 20260506013001 | 44 | 258 | 0.0 | 0.0 | 0.00 | 0.11 | 0.00 | 81 | 1014.0 |
| 20260506012503 | 44 | 251 | 0.0 | 4.0 | 0.00 | 0.11 | 0.00 | 81 | 1014.1 |
| 20260506012002 | 44 | 199 | 0.0 | 4.0 | 0.00 | 0.11 | 0.00 | 81 | 1014.1 |
| 20260506011502 | 42 | 223 | 0.0 | 0.0 | 0.00 | 0.11 | 0.00 | 82 | 1014.0 |
| 20260506011000 | 42 | 226 | 0.0 | 0.0 | 0.00 | 0.11 | 0.00 | 82 | 1014.1 |
| 20260506010502 | 42 | 226 | 0.0 | 0.0 | 0.00 | 0.11 | 0.00 | 82 | 1014.0 |
| 20260506010000 | 42 | 226 | 0.0 | 0.0 | 0.00 | 0.11 | 0.00 | 82 | 1014.0 |
| 20260506005502 | 42 | 226 | 0.0 | 0.0 | 0.00 | 0.11 | 0.00 | 82 | 1014.0 |
| 20260506005003 | 42 | 226 | 0.0 | 0.0 | 0.00 | 0.11 | 0.00 | 82 | 1014.0 |
| 20260506004501 | 43 | 226 | 0.0 | 0.0 | 0.00 | 0.11 | 0.00 | 82 | 1014.1 |
| 20260506004412 | 43 | 226 | 0.0 | 0.0 | 0.00 | 0.11 | 0.00 | 82 | 1014.0 |
| 20260506003500 | 43 | 226 | 0.0 | 0.0 | 0.00 | 0.11 | 0.00 | 82 | 1014.1 |
| 20260506003000 | 43 | 226 | 0.0 | 0.0 | 0.00 | 0.11 | 0.00 | 83 | 1014.1 |
| 20260506002911 | 43 | 226 | 0.0 | 0.0 | 0.00 | 0.11 | 0.00 | 82 | 1014.2 |
| 20260506002001 | 43 | 226 | 0.0 | 0.0 | 0.00 | 0.11 | 0.00 | 83 | 1014.1 |
| 20260506001500 | 43 | 226 | 0.0 | 0.0 | 0.00 | 0.11 | 0.00 | 83 | 1014.1 |
| 20260506001001 | 43 | 226 | 0.0 | 0.0 | 0.00 | 0.11 | 0.00 | 83 | 1014.2 |
| 20260506000500 | 44 | 226 | 0.0 | 0.0 | 0.00 | 0.11 | 0.00 | 83 | 1014.2 |
| 20260505235959 | 44 | 226 | 0.0 | 0.0 | 0.00 | 0.11 | 0.00 | 83 | 1014.2 |
| 20260505235459 | 44 | 226 | 0.0 | 0.0 | 0.00 | 0.11 | 0.00 | 83 | 1014.1 |
| 20260505234959 | 44 | 226 | 0.0 | 0.0 | 0.00 | 0.11 | 0.00 | 83 | 1014.2 |
| 20260505234501 | 44 | 226 | 0.0 | 0.0 | 0.00 | 0.11 | 0.00 | 83 | 1014.2 |
| 20260505233959 | 44 | 226 | 0.0 | 0.0 | 0.00 | 0.11 | 0.00 | 83 | 1014.2 |
| 20260505233840 | 44 | 227 | 0.0 | 0.0 | 0.00 | 0.11 | 0.00 | 83 | 1014.2 |
| 20260505233648 | 44 | 226 | 0.0 | 0.0 | 0.00 | 0.11 | 0.00 | 83 | 1014.2 |
| 20260505232458 | 44 | 226 | 0.0 | 0.0 | 0.00 | 0.11 | 0.00 | 83 | 1014.2 |
| 20260505232425 | 44 | 227 | 0.0 | 0.0 | 0.00 | 0.11 | 0.00 | 84 | 1014.3 |
| 20260505231452 | 44 | 227 | 0.0 | 0.0 | 0.00 | 0.11 | 0.00 | 84 | 1014.4 |
| 20260505230954 | 45 | 226 | 0.0 | 0.0 | 0.00 | 0.11 | 0.00 | 84 | 1014.4 |
| 20260505230452 | 45 | 227 | 0.0 | 0.0 | 0.00 | 0.11 | 0.00 | 84 | 1014.4 |
| 20260505225949 | 45 | 226 | 0.0 | 0.0 | 0.00 | 0.11 | 0.00 | 84 | 1014.4 |
| 20260505225447 | 45 | 227 | 0.0 | 0.0 | 0.00 | 0.11 | 0.00 | 84 | 1014.4 |
| 20260505224949 | 46 | 226 | 0.0 | 0.0 | 0.00 | 0.11 | 0.00 | 84 | 1014.4 |
| 20260505224448 | 45 | 227 | 0.0 | 4.0 | 0.00 | 0.11 | 0.00 | 84 | 1014.5 |
| 20260505223942 | 46 | 226 | 0.0 | 4.0 | 0.00 | 0.11 | 0.00 | 84 | 1014.4 |
| 20260505223441 | 46 | 251 | 0.0 | 0.0 | 0.00 | 0.11 | 0.00 | 84 | 1014.5 |
| 20260505222936 | 46 | 259 | 0.0 | 0.0 | 0.00 | 0.11 | 0.00 | 85 | 1014.5 |
| 20260505222850 | 46 | 259 | 0.0 | 0.0 | 0.00 | 0.11 | 0.00 | 85 | 1014.5 |
| 20260505221932 | 46 | 262 | 0.0 | 0.0 | 0.00 | 0.11 | 0.00 | 85 | 1014.5 |
| 20260505221433 | 46 | 219 | 0.0 | 0.0 | 0.00 | 0.11 | 0.00 | 85 | 1014.5 |
| 20260505220932 | 46 | 219 | 0.0 | 0.0 | 0.00 | 0.11 | 0.00 | 85 | 1014.7 |
| 20260505220432 | 46 | 219 | 0.0 | 0.0 | 0.00 | 0.11 | 0.00 | 85 | 1014.4 |
| 20260505215931 | 47 | 219 | 0.0 | 0.0 | 0.00 | 0.11 | 0.00 | 86 | 1014.5 |
| 20260505215844 | 47 | 238 | 0.0 | 0.0 | 0.00 | 0.11 | 0.00 | 86 | 1014.4 |
| 20260505214930 | 47 | 226 | 0.0 | 0.0 | 0.00 | 0.11 | 0.00 | 86 | 1014.4 |
| 20260505214429 | 47 | 259 | 0.0 | 0.0 | 0.00 | 0.11 | 0.00 | 86 | 1014.5 |
| 20260505213931 | 47 | 259 | 0.0 | 0.0 | 0.00 | 0.11 | 0.00 | 87 | 1014.5 |
| 20260505213428 | 48 | 259 | 0.0 | 0.0 | 0.00 | 0.11 | 0.00 | 87 | 1014.4 |
| 20260505213243 | 49 | 271 | 0.0 | 3.0 | 0.00 | 0.11 | 0.00 | 87 | 1014.3 |
| 20260505213101 | 48 | 259 | 0.0 | 0.0 | 0.00 | 0.11 | 0.00 | 87 | 1014.4 |
| 20260505212612 | 48 | 271 | 0.0 | 1.0 | 0.00 | 0.11 | 0.00 | 87 | 1014.4 |
| 20260505211425 | 49 | 282 | 0.0 | 3.0 | 0.00 | 0.11 | 0.00 | 87 | 1014.4 |
| 20260505210927 | 49 | 278 | 0.0 | 3.0 | 0.00 | 0.11 | 0.00 | 88 | 1014.4 |
| 20260505210425 | 50 | 259 | 1.0 | 3.0 | 0.00 | 0.11 | 0.00 | 88 | 1014.5 |
| 20260505205926 | 51 | 276 | 1.0 | 4.0 | 0.00 | 0.11 | 0.11 | 88 | 1014.5 |
| 20260505205424 | 51 | 257 | 0.0 | 5.0 | 0.00 | 0.11 | 0.11 | 87 | 1014.4 |
| 20260505205348 | 51 | 226 | 2.0 | 5.0 | 0.00 | 0.11 | 0.11 | 87 | 1014.5 |
| 20260505204420 | 51 | 252 | 0.0 | 7.0 | 0.00 | 0.11 | 0.11 | 86 | 1014.5 |
| 20260505203918 | 51 | 251 | 1.0 | 7.0 | 0.00 | 0.11 | 0.11 | 84 | 1014.4 |
| 20260505203839 | 50 | 285 | 3.0 | 5.0 | 0.00 | 0.11 | 0.11 | 84 | 1014.4 |
| 20260505203347 | 49 | 124 | 0.0 | 0.0 | 0.00 | 0.11 | 0.11 | 85 | 1014.5 |
| 20260505202416 | 49 | 124 | 0.0 | 0.0 | 0.00 | 0.11 | 0.11 | 86 | 1014.5 |
| 20260505201915 | 49 | 120 | 0.0 | 0.0 | 0.00 | 0.11 | 0.11 | 86 | 1014.4 |
| 20260505201413 | 50 | 120 | 0.0 | 0.0 | 0.00 | 0.11 | 0.11 | 86 | 1014.4 |
| 20260505200914 | 50 | 252 | 0.0 | 0.0 | 0.00 | 0.11 | 0.11 | 86 | 1014.4 |
| 20260505200414 | 50 | 252 | 0.0 | 0.0 | 0.00 | 0.11 | 0.11 | 87 | 1014.3 |
| 20260505195913 | 50 | 252 | 0.0 | 0.0 | 0.00 | 0.11 | 0.11 | 87 | 1014.3 |
| 20260505195411 | 51 | 252 | 0.0 | 0.0 | 0.00 | 0.11 | 0.11 | 87 | 1014.2 |
| 20260505194911 | 51 | 252 | 0.0 | 0.0 | 0.00 | 0.11 | 0.11 | 87 | 1014.3 |
| 20260505194413 | 51 | 252 | 0.0 | 0.0 | 0.00 | 0.11 | 0.11 | 87 | 1014.4 |
| 20260505193910 | 52 | 252 | 0.0 | 0.0 | 0.00 | 0.11 | 0.11 | 87 | 1014.3 |
| 20260505193410 | 52 | 252 | 0.0 | 0.0 | 0.00 | 0.11 | 0.11 | 87 | 1014.2 |
| 20260505192909 | 52 | 252 | 0.0 | 0.0 | 0.00 | 0.11 | 0.11 | 88 | 1014.3 |
| 20260505192408 | 53 | 252 | 0.0 | 0.0 | 0.00 | 0.11 | 0.11 | 88 | 1014.2 |
| 20260505191905 | 53 | 252 | 0.0 | 0.0 | 0.00 | 0.11 | 0.11 | 88 | 1014.2 |
| 20260505191408 | 53 | 252 | 0.0 | 0.0 | 0.00 | 0.11 | 0.11 | 87 | 1014.2 |
| 20260505190903 | 54 | 252 | 0.0 | 0.0 | 0.00 | 0.11 | 0.11 | 87 | 1014.2 |
| 20260505190403 | 55 | 252 | 0.0 | 0.0 | 0.00 | 0.11 | 0.11 | 87 | 1014.2 |
| 20260505185903 | 56 | 252 | 0.0 | 0.0 | 0.00 | 0.11 | 0.11 | 87 | 1014.1 |
| 20260505185404 | 56 | 252 | 0.0 | 0.0 | 0.00 | 0.11 | 0.11 | 86 | 1014.1 |
| 20260505184903 | 57 | 252 | 0.0 | 0.0 | 0.00 | 0.11 | 0.11 | 86 | 1014.0 |
| 20260505184405 | 58 | 252 | 0.0 | 0.0 | 0.00 | 0.11 | 0.11 | 85 | 1013.9 |
| 20260505184315 | 57 | 266 | 0.0 | 0.0 | 0.00 | 0.11 | 0.11 | 86 | 1013.9 |
| 20260505183404 | 57 | 264 | 0.0 | 0.0 | 0.00 | 0.11 | 0.11 | 87 | 1013.9 |
| 20260505183320 | 56 | 135 | 0.0 | 0.0 | 0.00 | 0.11 | 0.11 | 87 | 1013.8 |
| 20260505182402 | 56 | 141 | 0.0 | 0.0 | 0.00 | 0.11 | 0.11 | 87 | 1013.7 |
| 20260505182325 | 57 | 219 | 0.0 | 4.0 | 0.00 | 0.11 | 0.11 | 86 | 1013.8 |
| 20260505181403 | 57 | 261 | 1.0 | 6.0 | 0.00 | 0.11 | 0.11 | 85 | 1014.1 |
| 20260505180902 | 57 | 265 | 1.0 | 6.0 | 0.00 | 0.11 | 0.11 | 86 | 1014.3 |
| 20260505180401 | 57 | 240 | 0.0 | 9.0 | 0.00 | 0.11 | 0.11 | 87 | 1014.2 |
| 20260505175903 | 56 | 252 | 3.0 | 9.0 | 0.00 | 0.11 | 0.11 | 87 | 1014.2 |
| 20260505175402 | 56 | 259 | 4.0 | 9.0 | 0.00 | 0.11 | 0.11 | 87 | 1014.2 |
| 20260505174904 | 56 | 244 | 0.0 | 0.0 | 0.00 | 0.11 | 0.11 | 87 | 1014.1 |
| 20260505174403 | 56 | 245 | 0.0 | 0.0 | 0.00 | 0.11 | 0.11 | 87 | 1014.0 |
| 20260505174329 | 57 | 245 | 0.0 | 0.0 | 0.00 | 0.11 | 0.11 | 87 | 1013.9 |
| 20260505173402 | 57 | 245 | 0.0 | 0.0 | 0.00 | 0.11 | 0.11 | 87 | 1013.8 |
| 20260505172905 | 58 | 245 | 0.0 | 0.0 | 0.00 | 0.11 | 0.11 | 87 | 1013.8 |
| 20260505172403 | 58 | 245 | 0.0 | 0.0 | 0.00 | 0.11 | 0.11 | 86 | 1013.8 |
| 20260505171905 | 59 | 245 | 0.0 | 0.0 | 0.00 | 0.11 | 0.11 | 86 | 1013.7 |
| 20260505171819 | 60 | 245 | 0.0 | 0.0 | 0.00 | 0.11 | 0.11 | 85 | 1013.7 |
| 20260505170902 | 60 | 245 | 0.0 | 0.0 | 0.00 | 0.11 | 0.11 | 85 | 1013.7 |
| 20260505170831 | 61 | 245 | 0.0 | 0.0 | 0.00 | 0.11 | 0.11 | 84 | 1013.6 |
| 20260505165902 | 61 | 30 | 0.0 | 0.0 | 0.00 | 0.11 | 0.11 | 84 | 1013.6 |
| 20260505165403 | 61 | 30 | 0.0 | 0.0 | 0.00 | 0.11 | 0.11 | 84 | 1013.7 |
| 20260505164903 | 61 | 30 | 0.0 | 0.0 | 0.00 | 0.11 | 0.11 | 83 | 1013.6 |
| 20260505164405 | 61 | 30 | 0.0 | 0.0 | 0.00 | 0.11 | 0.11 | 82 | 1013.6 |
| 20260505163903 | 62 | 32 | 0.0 | 0.0 | 0.00 | 0.11 | 0.11 | 82 | 1013.5 |
| 20260505163404 | 62 | 13 | 0.0 | 0.0 | 0.00 | 0.11 | 0.11 | 81 | 1013.5 |
| 20260505162903 | 63 | 13 | 0.0 | 0.0 | 0.00 | 0.11 | 0.11 | 81 | 1013.5 |
| 20260505162405 | 64 | 13 | 0.0 | 0.0 | 0.00 | 0.11 | 0.11 | 79 | 1013.5 |
| 20260505161902 | 65 | 13 | 0.0 | 0.0 | 0.00 | 0.11 | 0.11 | 78 | 1013.6 |
| 20260505161404 | 66 | 13 | 0.0 | 0.0 | 0.00 | 0.11 | 0.11 | 79 | 1013.6 |
| 20260505160903 | 66 | 13 | 0.0 | 0.0 | 0.00 | 0.11 | 0.11 | 79 | 1013.6 |
| 20260505160402 | 66 | 13 | 0.0 | 0.0 | 0.00 | 0.11 | 0.11 | 74 | 1013.7 |
| 20260505153215 | 70 | 248 | 1.0 | 2.0 | 0.00 | 0.11 | 0.11 | 68 | 1013.6 |
| 20260505153206 | 70 | 275 | 0.0 | 2.0 | 0.00 | 0.11 | 0.11 | 71 | 1013.6 |
| 20260505153026 | 69 | 278 | 0.0 | 0.0 | 0.00 | 0.11 | 0.11 | 72 | 1013.6 |
| 20260505151357 | 70 | 275 | 0.0 | 2.0 | 0.00 | 0.11 | 0.11 | 69 | 1013.7 |
| 20260505150859 | 70 | 279 | 0.0 | 2.0 | 0.00 | 0.11 | 0.11 | 70 | 1013.8 |
| 20260505150357 | 70 | 247 | 0.0 | 1.0 | 0.00 | 0.11 | 0.11 | 72 | 1013.8 |
| 20260505140348 | 63 | 250 | 0.0 | 5.0 | 0.00 | 0.11 | 0.11 | 87 | 1013.9 |
| 20260505130302 | 62 | 39 | 0.0 | 0.0 | 0.11 | 0.00 | 0.11 | 85 | 1014.1 |
| 20260505124844 | 64 | 54 | 0.0 | 3.0 | 0.11 | 0.00 | 0.11 | 78 | 1013.9 |
| 20260505124810 | 67 | 341 | 1.0 | 3.0 | 0.11 | 0.00 | 0.10 | 71 | 1013.9 |
| 20260505123847 | 70 | 147 | 0.0 | 3.0 | 0.06 | 0.00 | 0.05 | 61 | 1013.9 |
| 20260505123343 | 72 | 54 | 0.0 | 6.0 | 0.01 | 0.00 | 0.00 | 53 | 1013.9 |
| 20260505122845 | 73 | 104 | 1.0 | 9.0 | 0.00 | 0.00 | 0.00 | 51 | 1013.8 |
| 20260505122345 | 73 | 118 | 1.0 | 10.0 | 0.00 | 0.00 | 0.00 | 51 | 1013.8 |
| 20260505121844 | 74 | 134 | 0.0 | 13.0 | 0.00 | 0.00 | 0.00 | 50 | 1013.7 |
| 20260505121343 | 75 | 180 | 3.0 | 13.0 | 0.00 | 0.00 | 0.00 | 49 | 1013.8 |
| 20260505120849 | 75 | 155 | 1.0 | 10.0 | 0.00 | 0.00 | 0.00 | 49 | 1013.8 |
| 20260505120815 | 75 | 66 | 3.0 | 10.0 | 0.00 | 0.00 | 0.00 | 48 | 1013.8 |
| 20260505120253 | 76 | 90 | 0.0 | 10.0 | 0.00 | 0.00 | 0.00 | 50 | 1013.9 |
| 20260505115344 | 75 | 149 | 1.0 | 12.0 | 0.00 | 0.00 | 0.00 | 51 | 1013.9 |
| 20260505115224 | 74 | 109 | 1.0 | 10.0 | 0.00 | 0.00 | 0.00 | 48 | 1013.9 |
| 20260505115217 | 74 | 141 | 1.0 | 7.0 | 0.00 | 0.00 | 0.00 | 50 | 1014.0 |
| 20260505115024 | 74 | 42 | 2.0 | 12.0 | 0.00 | 0.00 | 0.00 | 49 | 1013.8 |
| 20260505113812 | 75 | 145 | 2.0 | 10.0 | 0.00 | 0.00 | 0.00 | 48 | 1014.0 |
| 20260505112841 | 75 | 142 | 3.0 | 10.0 | 0.00 | 0.00 | 0.00 | 48 | 1013.9 |
| 20260505112756 | 75 | 117 | 0.0 | 10.0 | 0.00 | 0.00 | 0.00 | 49 | 1014.0 |
| 20260505111840 | 75 | 114 | 1.0 | 7.0 | 0.00 | 0.00 | 0.00 | 49 | 1014.0 |
| 20260505111340 | 74 | 141 | 2.0 | 11.0 | 0.00 | 0.00 | 0.00 | 50 | 1014.0 |
| 20260505110837 | 74 | 58 | 2.0 | 11.0 | 0.00 | 0.00 | 0.00 | 47 | 1014.1 |